Time;durP1;ratioP1;P1;durP2;ratioP2;P2;SDS_P1;SDS_P2;PMS_P1;PMS_P2;Temp;Humidity;BMP_temperature;BMP_pressure;BME280_temperature;BME280_humidity;BME280_pressure;Samples;Min_cycle;Max_cycle;Signal;HPM_P1;HPM_P2
2023/02/23 00:01:16;;;;;;;42.53;37.60;;;10.60;99.90;;;;;;5032367;28;20420;-79
2023/02/23 00:03:43;;;;;;;43.87;35.43;;;10.60;99.90;;;;;;5032170;28;21000;-79
2023/02/23 00:06:09;;;;;;;43.53;33.70;;;10.60;99.90;;;;;;5032582;28;20421;-78
2023/02/23 00:08:36;;;;;;;44.40;35.60;;;10.60;99.90;;;;;;5030709;28;20423;-79
2023/02/23 00:11:07;;;;;;;42.40;35.57;;;10.60;99.90;;;;;;5030800;28;20445;-79
2023/02/23 00:13:37;;;;;;;46.50;37.53;;;10.60;99.90;;;;;;5030555;28;20945;-79
2023/02/23 00:16:08;;;;;;;43.97;35.70;;;10.60;99.90;;;;;;5032288;28;20805;-79
2023/02/23 00:18:43;;;;;;;48.50;37.77;;;10.60;99.90;;;;;;5031893;28;20417;-79
2023/02/23 00:21:17;;;;;;;45.10;36.17;;;10.60;99.90;;;;;;5030768;28;20780;-79
2023/02/23 00:23:54;;;;;;;48.33;37.23;;;10.60;99.90;;;;;;5030596;28;20471;-79
2023/02/23 00:26:22;;;;;;;45.30;36.30;;;10.60;99.90;;;;;;5030901;28;20431;-79
2023/02/23 00:28:49;;;;;;;48.73;36.67;;;10.60;99.90;;;;;;5031792;28;20414;-79
2023/02/23 00:31:15;;;;;;;48.73;38.00;;;10.60;99.90;;;;;;5031922;28;20425;-79
2023/02/23 00:33:41;;;;;;;42.47;35.63;;;10.60;99.90;;;;;;5031654;28;20448;-79
2023/02/23 00:36:10;;;;;;;47.27;36.40;;;10.60;99.90;;;;;;5030473;28;20425;-79
2023/02/23 00:38:38;;;;;;;45.00;37.70;;;10.60;99.90;;;;;;5031513;28;20479;-79
2023/02/23 00:41:16;;;;;;;45.87;37.40;;;10.60;99.90;;;;;;5032120;28;20512;-77
2023/02/23 00:43:46;;;;;;;48.03;36.73;;;10.50;99.90;;;;;;5031156;28;20835;-79
2023/02/23 00:46:15;;;;;;;46.90;37.20;;;10.50;99.90;;;;;;5031820;28;20424;-78
2023/02/23 00:48:41;;;;;;;45.50;37.60;;;10.50;99.90;;;;;;5029811;28;20413;-78
2023/02/23 00:51:07;;;;;;;42.37;34.30;;;10.60;99.90;;;;;;5030212;28;20420;-78
2023/02/23 00:53:32;;;;;;;47.33;38.00;;;10.50;99.90;;;;;;5031157;28;20445;-79
2023/02/23 00:55:58;;;;;;;47.63;37.70;;;10.60;99.90;;;;;;5030235;28;20195;-79
2023/02/23 00:58:25;;;;;;;46.87;39.20;;;10.60;99.90;;;;;;5031285;28;20189;-79
2023/02/23 01:00:52;;;;;;;43.03;36.03;;;10.50;99.90;;;;;;5030098;28;20187;-79
2023/02/23 01:03:18;;;;;;;47.90;37.43;;;10.50;99.90;;;;;;5031199;28;20479;-78
2023/02/23 01:05:44;;;;;;;52.17;39.57;;;10.50;99.90;;;;;;5030595;28;20425;-79
2023/02/23 01:08:11;;;;;;;46.50;36.43;;;10.50;99.90;;;;;;5031425;28;20186;-79
2023/02/23 01:10:41;;;;;;;47.03;37.23;;;10.50;99.90;;;;;;5029089;28;20429;-79
2023/02/23 01:13:09;;;;;;;49.17;38.00;;;10.50;99.90;;;;;;5030817;28;20528;-79
2023/02/23 01:15:44;;;;;;;50.27;39.37;;;10.40;99.90;;;;;;5029999;28;20471;-79
2023/02/23 01:18:14;;;;;;;50.00;37.57;;;10.50;99.90;;;;;;5030812;28;20448;-79
2023/02/23 01:20:42;;;;;;;54.00;40.27;;;10.40;99.90;;;;;;5030771;28;20508;-79
2023/02/23 01:23:11;;;;;;;53.07;39.50;;;10.40;99.90;;;;;;5030443;28;20503;-79
2023/02/23 01:25:38;;;;;;;50.63;39.30;;;10.40;99.90;;;;;;5030364;28;20422;-79
2023/02/23 01:28:04;;;;;;;52.57;41.80;;;10.40;99.90;;;;;;5030517;28;20421;-79
2023/02/23 01:30:29;;;;;;;53.90;39.80;;;10.40;99.90;;;;;;5029678;28;20475;-79
2023/02/23 01:32:55;;;;;;;48.20;39.00;;;10.40;99.90;;;;;;5030638;28;20213;-78
2023/02/23 01:35:21;;;;;;;50.80;39.40;;;10.50;99.90;;;;;;5030558;28;20182;-79
2023/02/23 01:37:48;;;;;;;54.30;39.10;;;10.50;99.90;;;;;;5028944;28;20237;-79
2023/02/23 01:40:28;;;;;;;50.57;40.77;;;10.50;99.90;;;;;;5029285;28;20612;-79
2023/02/23 01:43:10;;;;;;;50.90;41.00;;;10.50;99.90;;;;;;5029100;28;20548;-79
2023/02/23 01:45:39;;;;;;;54.40;41.10;;;10.40;99.90;;;;;;5030525;28;20425;-79
2023/02/23 01:48:20;;;;;;;55.73;43.30;;;10.40;99.90;;;;;;5028792;28;21017;-79
2023/02/23 01:51:12;;;;;;;50.43;39.33;;;10.40;99.90;;;;;;5030231;28;20972;-79
2023/02/23 01:53:43;;;;;;;50.63;39.63;;;10.30;99.90;;;;;;5029815;28;20437;-79
2023/02/23 01:56:17;;;;;;;52.00;40.00;;;10.40;99.90;;;;;;5030189;28;20479;-79
2023/02/23 01:58:46;;;;;;;55.17;42.03;;;10.40;99.90;;;;;;5028772;28;20471;-79
2023/02/23 02:01:12;;;;;;;56.17;42.83;;;10.40;99.90;;;;;;5030039;28;20479;-79
2023/02/23 02:03:43;;;;;;;56.07;42.63;;;10.40;99.90;;;;;;5029620;28;20469;-79
2023/02/23 02:06:13;;;;;;;55.80;43.30;;;10.40;99.90;;;;;;5030283;28;20413;-79
2023/02/23 02:08:44;;;;;;;58.10;43.20;;;10.30;99.90;;;;;;5028579;28;20444;-79
2023/02/23 02:11:29;;;;;;;59.17;41.47;;;10.40;99.90;;;;;;5028626;28;20441;-78
2023/02/23 02:14:12;;;;;;;63.00;43.70;;;10.30;99.90;;;;;;5029624;28;20498;-79
2023/02/23 02:17:01;;;;;;;62.33;42.77;;;10.40;99.90;;;;;;5028481;28;20429;-79
2023/02/23 02:19:32;;;;;;;57.23;42.80;;;10.40;99.90;;;;;;5029880;28;20425;-78
2023/02/23 02:22:13;;;;;;;52.60;42.03;;;10.40;99.90;;;;;;5029940;28;20448;-78
2023/02/23 02:24:53;;;;;;;59.40;43.23;;;10.30;99.90;;;;;;5029542;28;20514;-78
2023/02/23 02:27:47;;;;;;;57.83;43.60;;;10.40;99.90;;;;;;5028195;28;20445;-79
2023/02/23 02:30:36;;;;;;;56.37;43.60;;;10.30;99.90;;;;;;5024545;28;20435;-78
2023/02/23 02:33:30;;;;;;;56.30;42.10;;;10.30;99.90;;;;;;5027504;28;20452;-78
2023/02/23 02:36:16;;;;;;;57.00;40.90;;;10.40;99.90;;;;;;5039710;28;20898;-78
2023/02/23 02:39:06;;;;;;;60.10;43.60;;;10.40;99.90;;;;;;5029230;28;20437;-79
2023/02/23 02:41:41;;;;;;;61.13;42.70;;;10.40;99.90;;;;;;5026860;28;20521;-79
2023/02/23 02:44:14;;;;;;;57.90;39.87;;;10.40;99.90;;;;;;5026879;28;20459;-79
2023/02/23 02:46:47;;;;;;;56.97;40.70;;;10.40;99.90;;;;;;5029462;28;20417;-79
2023/02/23 02:49:31;;;;;;;61.53;43.37;;;10.40;99.90;;;;;;5029561;28;20494;-79
2023/02/23 02:52:04;;;;;;;58.00;42.90;;;10.40;99.90;;;;;;5022756;28;20437;-78
2023/02/23 02:54:46;;;;;;;63.77;43.40;;;10.30;99.90;;;;;;5027916;28;20477;-78
2023/02/23 02:57:13;;;;;;;55.50;41.63;;;10.30;99.90;;;;;;5028235;28;20428;-79
2023/02/23 04:18:17;;;;;;;53.70;40.77;;;10.30;99.90;;;;;;5033007;28;20420;-79
2023/02/23 04:20:42;;;;;;;52.07;39.60;;;10.30;99.90;;;;;;5031604;28;20417;-79
2023/02/23 04:23:08;;;;;;;55.70;41.67;;;10.30;99.90;;;;;;5032798;28;20468;-78
2023/02/23 04:25:34;;;;;;;52.33;39.17;;;10.30;99.90;;;;;;5031849;28;20236;-78
2023/02/23 04:28:00;;;;;;;59.63;42.80;;;10.20;99.90;;;;;;5032788;28;20228;-79
2023/02/23 04:30:27;;;;;;;61.07;44.40;;;10.30;99.90;;;;;;5015058;28;20174;-79
2023/02/23 04:32:54;;;;;;;56.37;43.47;;;10.20;99.90;;;;;;5032881;28;20572;-78
2023/02/23 04:35:19;;;;;;;62.73;43.03;;;10.30;99.90;;;;;;5031388;28;20464;-79
2023/02/23 04:37:45;;;;;;;56.30;40.90;;;10.20;99.90;;;;;;5014985;28;20457;-78
2023/02/23 04:40:11;;;;;;;58.60;42.13;;;10.30;99.90;;;;;;5031318;28;20209;-79
2023/02/23 04:42:39;;;;;;;57.67;45.70;;;10.20;99.90;;;;;;5032454;28;20225;-79
2023/02/23 04:45:05;;;;;;;50.90;39.93;;;10.20;99.90;;;;;;5031361;28;20414;-79
2023/02/23 04:47:31;;;;;;;52.33;41.17;;;10.20;99.90;;;;;;5031187;28;20414;-79
2023/02/23 04:49:59;;;;;;;60.07;43.13;;;10.20;99.90;;;;;;5032440;28;20420;-77
2023/02/23 04:52:25;;;;;;;62.13;43.20;;;10.20;99.90;;;;;;5032385;28;20938;-79
2023/02/23 04:54:50;;;;;;;56.43;41.27;;;10.20;99.90;;;;;;5031212;28;20185;-79
2023/02/23 04:57:17;;;;;;;59.43;42.63;;;10.20;99.90;;;;;;5032081;28;20194;-79
2023/02/23 04:59:42;;;;;;;56.67;40.30;;;10.20;99.90;;;;;;5030164;28;20681;-79
2023/02/23 05:02:08;;;;;;;56.97;40.10;;;10.20;99.90;;;;;;5030928;28;20448;-79
2023/02/23 05:04:34;;;;;;;59.57;42.30;;;10.20;99.90;;;;;;5031921;28;20469;-79
2023/02/23 05:07:00;;;;;;;53.60;38.77;;;10.20;99.90;;;;;;5031987;28;20198;-79
2023/02/23 05:09:26;;;;;;;56.90;39.27;;;10.20;99.90;;;;;;5030731;28;20194;-79
2023/02/23 05:11:51;;;;;;;56.50;39.43;;;10.20;99.90;;;;;;5030674;28;20437;-79
2023/02/23 05:14:17;;;;;;;55.23;39.17;;;10.20;99.90;;;;;;5031795;28;20186;-79
2023/02/23 05:16:43;;;;;;;56.23;38.90;;;10.20;99.90;;;;;;5030751;28;20281;-79
2023/02/23 05:19:09;;;;;;;55.80;37.80;;;10.20;99.90;;;;;;5031879;28;20329;-79
2023/02/23 05:21:35;;;;;;;57.07;39.27;;;10.20;99.90;;;;;;5031394;28;20584;-79
2023/02/23 05:24:01;;;;;;;61.37;39.07;;;10.20;99.90;;;;;;5030812;28;20290;-78
2023/02/23 05:26:26;;;;;;;57.73;38.13;;;10.10;99.90;;;;;;5030078;28;20190;-79
2023/02/23 05:28:53;;;;;;;54.40;39.33;;;10.10;99.90;;;;;;5030666;28;20840;-79
2023/02/23 05:31:19;;;;;;;59.43;40.67;;;10.10;99.90;;;;;;5029304;28;20209;-79
2023/02/23 05:33:44;;;;;;;56.60;39.30;;;10.10;99.90;;;;;;5030607;28;20473;-79
2023/02/23 05:36:16;;;;;;;59.00;38.43;;;10.10;99.90;;;;;;5030485;28;20190;-79
2023/02/23 05:38:42;;;;;;;58.77;39.77;;;10.20;99.90;;;;;;5030610;28;20194;-79
2023/02/23 05:41:10;;;;;;;64.50;41.63;;;10.10;99.90;;;;;;5030633;28;20452;-79
2023/02/23 05:43:36;;;;;;;62.50;40.77;;;10.10;99.90;;;;;;5030128;28;20465;-79
2023/02/23 05:46:23;;;;;;;67.77;42.70;;;10.10;99.90;;;;;;5030729;28;20413;-79
2023/02/23 05:48:50;;;;;;;61.30;39.80;;;10.10;99.90;;;;;;5029051;28;20248;-78
2023/02/23 05:51:16;;;;;;;59.37;41.30;;;10.10;99.90;;;;;;5029372;28;20984;-77
2023/02/23 05:53:42;;;;;;;59.70;41.00;;;10.10;99.90;;;;;;5028405;28;20804;-77
2023/02/23 05:56:12;;;;;;;63.63;40.40;;;10.10;99.90;;;;;;5030338;28;20417;-77
2023/02/23 05:58:38;;;;;;;64.93;41.37;;;10.00;99.90;;;;;;5028817;28;20440;-77
2023/02/23 06:01:03;;;;;;;65.93;41.47;;;10.10;99.90;;;;;;5030221;28;20405;-77
2023/02/23 06:03:29;;;;;;;67.60;41.60;;;10.10;99.90;;;;;;5029897;28;20214;-78
2023/02/23 06:05:57;;;;;;;71.30;43.17;;;10.00;99.90;;;;;;5030468;28;20301;-78
2023/02/23 06:08:25;;;;;;;64.97;40.77;;;10.00;99.90;;;;;;5030076;28;20220;-77
2023/02/23 06:10:51;;;;;;;64.80;41.70;;;10.00;99.90;;;;;;5028367;28;20440;-77
2023/02/23 06:13:17;;;;;;;64.10;39.87;;;10.00;99.90;;;;;;5028523;28;21017;-79
2023/02/23 06:15:43;;;;;;;69.53;42.50;;;10.00;99.90;;;;;;5028968;28;20459;-79
2023/02/23 06:18:09;;;;;;;67.30;43.53;;;10.00;99.90;;;;;;5028642;28;20589;-78
2023/02/23 06:20:36;;;;;;;69.40;43.07;;;10.00;99.90;;;;;;5028670;28;20495;-79
2023/02/23 06:23:02;;;;;;;64.97;43.20;;;9.90;99.90;;;;;;5028183;28;20464;-79
2023/02/23 06:25:28;;;;;;;68.07;43.90;;;10.00;99.90;;;;;;5028725;28;20418;-79
2023/02/23 06:27:54;;;;;;;64.60;43.13;;;10.00;99.90;;;;;;5028800;28;20425;-79
2023/02/23 06:30:20;;;;;;;74.43;44.67;;;10.00;99.90;;;;;;5029117;28;20170;-79
2023/02/23 06:32:45;;;;;;;69.27;44.53;;;10.00;99.90;;;;;;5030366;28;20373;-79
2023/02/23 06:35:11;;;;;;;70.93;45.73;;;10.00;99.90;;;;;;5030281;28;20698;-79
2023/02/23 06:37:37;;;;;;;67.03;43.63;;;10.00;99.90;;;;;;5030150;28;20183;-79
2023/02/23 06:40:04;;;;;;;63.20;42.17;;;9.90;99.90;;;;;;5030483;28;20417;-79
2023/02/23 06:42:29;;;;;;;63.93;42.40;;;10.00;99.90;;;;;;5030139;28;20221;-79
2023/02/23 06:44:55;;;;;;;62.47;42.50;;;10.00;99.90;;;;;;5030298;28;20460;-79
2023/02/23 06:47:21;;;;;;;66.00;42.30;;;9.90;99.90;;;;;;5029934;28;20731;-79
2023/02/23 06:49:46;;;;;;;71.20;44.73;;;10.00;99.90;;;;;;5030182;28;20674;-78
2023/02/23 06:52:13;;;;;;;68.60;44.50;;;10.00;99.90;;;;;;5028750;28;20686;-78
2023/02/23 06:54:41;;;;;;;83.03;46.47;;;10.00;99.90;;;;;;5012213;28;20189;-79
2023/02/23 06:57:08;;;;;;;75.17;44.27;;;10.00;99.90;;;;;;5028415;28;20413;-79
2023/02/23 06:59:35;;;;;;;73.53;46.20;;;10.00;99.90;;;;;;5030143;28;20420;-79
2023/02/23 07:02:03;;;;;;;74.37;43.53;;;9.90;99.90;;;;;;5030125;28;20441;-79
2023/02/23 07:04:29;;;;;;;78.17;45.17;;;9.90;99.90;;;;;;5028354;28;21047;-79
2023/02/23 07:06:54;;;;;;;71.60;43.60;;;9.90;99.90;;;;;;5028418;28;20413;-79
2023/02/23 07:09:20;;;;;;;76.37;45.83;;;9.90;99.90;;;;;;5030036;28;20186;-79
2023/02/23 07:11:46;;;;;;;74.57;46.20;;;9.90;99.90;;;;;;5029902;28;20221;-79
2023/02/23 07:14:12;;;;;;;77.57;47.37;;;9.90;99.90;;;;;;5029708;28;20275;-79
2023/02/23 07:16:38;;;;;;;74.50;45.50;;;9.90;99.90;;;;;;5031059;28;20171;-79
2023/02/23 07:19:05;;;;;;;69.80;43.87;;;9.90;99.90;;;;;;5030185;28;20446;-79
2023/02/23 07:21:32;;;;;;;76.90;47.10;;;9.90;99.90;;;;;;5028455;28;20507;-79
2023/02/23 07:23:58;;;;;;;71.97;44.47;;;9.90;99.90;;;;;;5025689;28;20480;-79
2023/02/23 07:26:23;;;;;;;76.30;46.83;;;9.90;99.90;;;;;;5032476;28;20416;-79
2023/02/23 07:28:49;;;;;;;73.70;45.20;;;10.00;99.90;;;;;;5032603;28;20475;-79
2023/02/23 07:31:15;;;;;;;72.90;45.80;;;9.90;99.90;;;;;;5031596;28;20190;-79
2023/02/23 07:33:41;;;;;;;79.07;47.13;;;9.90;99.90;;;;;;5032864;28;20504;-79
2023/02/23 07:36:07;;;;;;;79.53;46.83;;;9.90;99.90;;;;;;5033106;28;20182;-78
2023/02/23 07:38:33;;;;;;;81.90;48.67;;;9.90;99.90;;;;;;5032864;28;20595;-78
2023/02/23 07:40:59;;;;;;;66.97;43.63;;;9.90;99.90;;;;;;5032881;28;20482;-79
2023/02/23 07:43:24;;;;;;;67.50;43.77;;;9.90;99.90;;;;;;5032269;28;20456;-78
2023/02/23 07:45:50;;;;;;;71.63;44.07;;;9.90;99.90;;;;;;5033142;28;20183;-80
2023/02/23 07:48:17;;;;;;;71.77;44.70;;;9.90;99.90;;;;;;5032588;28;20213;-78
2023/02/23 07:50:43;;;;;;;72.37;44.50;;;9.90;99.90;;;;;;5023205;28;20927;-79
2023/02/23 07:53:10;;;;;;;72.97;44.60;;;9.90;99.90;;;;;;5012255;28;20528;-79
2023/02/23 07:55:37;;;;;;;60.30;42.37;;;9.90;99.90;;;;;;5031028;28;20521;-78
2023/02/23 07:58:04;;;;;;;70.20;43.67;;;9.90;99.90;;;;;;5032419;28;20447;-78
2023/02/23 08:00:30;;;;;;;69.70;44.93;;;10.00;99.90;;;;;;5014086;28;20465;-79
2023/02/23 08:02:56;;;;;;;62.93;41.53;;;10.00;99.90;;;;;;5012696;28;20889;-80
2023/02/23 08:05:21;;;;;;;64.57;41.50;;;10.00;99.90;;;;;;4995087;28;20453;-79
2023/02/23 08:07:47;;;;;;;67.43;43.33;;;10.00;99.90;;;;;;5017925;28;20226;-78
2023/02/23 08:10:12;;;;;;;66.80;44.00;;;9.90;99.90;;;;;;5011224;28;20637;-78
2023/02/23 08:12:38;;;;;;;75.20;43.80;;;9.90;99.90;;;;;;5012810;28;20210;-79
2023/02/23 08:15:07;;;;;;;65.97;44.87;;;9.90;99.90;;;;;;5012436;28;20177;-78
2023/02/23 08:17:34;;;;;;;65.70;42.87;;;10.00;99.90;;;;;;5012415;28;20270;-78
2023/02/23 08:20:00;;;;;;;68.03;44.33;;;9.90;99.90;;;;;;5012457;28;20445;-78
2023/02/23 08:22:26;;;;;;;67.60;42.77;;;9.90;99.90;;;;;;5002283;28;20446;-78
2023/02/23 08:24:52;;;;;;;66.07;40.80;;;9.90;99.90;;;;;;5009683;28;20187;-78
2023/02/23 08:27:18;;;;;;;61.97;40.70;;;9.90;99.90;;;;;;5010879;28;20422;-79
2023/02/23 08:29:44;;;;;;;58.50;39.93;;;9.90;99.90;;;;;;5012271;28;20179;-79
2023/02/23 08:32:10;;;;;;;53.70;36.97;;;9.90;99.90;;;;;;5009665;28;20818;-79
2023/02/23 08:34:43;;;;;;;59.40;39.20;;;9.90;99.90;;;;;;5010845;28;20183;-79
2023/02/23 08:37:09;;;;;;;64.83;41.23;;;9.90;99.90;;;;;;5012107;28;20194;-78
2023/02/23 08:39:35;;;;;;;58.60;40.13;;;9.90;99.90;;;;;;5010698;28;20922;-78
2023/02/23 08:42:01;;;;;;;61.87;39.77;;;10.00;99.90;;;;;;5012237;28;20521;-78
2023/02/23 08:44:26;;;;;;;57.90;39.70;;;9.90;99.90;;;;;;5011688;28;20821;-79
2023/02/23 08:46:54;;;;;;;57.50;38.87;;;10.00;99.90;;;;;;5010756;28;20418;-78
2023/02/23 08:49:20;;;;;;;59.93;37.90;;;10.00;99.90;;;;;;5009739;28;20554;-78
2023/02/23 08:51:46;;;;;;;50.40;36.13;;;10.00;99.90;;;;;;5009723;28;20433;-79
2023/02/23 08:54:14;;;;;;;51.77;35.70;;;10.00;99.90;;;;;;5009388;28;20417;-78
2023/02/23 08:56:40;;;;;;;51.43;36.90;;;9.90;99.90;;;;;;5008940;28;20186;-79
2023/02/23 08:59:07;;;;;;;47.30;34.80;;;9.90;99.90;;;;;;5009267;28;20433;-78
2023/02/23 09:01:33;;;;;;;53.27;35.50;;;9.90;99.90;;;;;;5010957;28;20437;-78
2023/02/23 09:03:59;;;;;;;54.87;35.33;;;9.90;99.90;;;;;;5010093;28;20462;-78
2023/02/23 09:06:25;;;;;;;51.50;34.87;;;9.90;99.90;;;;;;5010624;28;20506;-78
2023/02/23 09:08:53;;;;;;;54.53;35.17;;;9.90;99.90;;;;;;5010287;28;20446;-78
2023/02/23 09:11:18;;;;;;;53.50;35.60;;;9.80;99.90;;;;;;5011294;28;20859;-78
2023/02/23 09:13:44;;;;;;;56.97;35.60;;;9.80;99.90;;;;;;5009890;28;20444;-80
2023/02/23 09:16:10;;;;;;;52.40;34.87;;;9.80;99.90;;;;;;5010345;28;20183;-79
2023/02/23 09:18:36;;;;;;;62.80;38.40;;;9.80;99.90;;;;;;4993675;28;20865;-79
2023/02/23 09:21:07;;;;;;;60.03;38.13;;;9.90;99.90;;;;;;4993988;28;20194;-78
2023/02/23 09:23:33;;;;;;;63.37;39.70;;;9.90;99.90;;;;;;5011430;28;20222;-79
2023/02/23 09:26:05;;;;;;;60.80;37.43;;;10.00;99.90;;;;;;5010407;28;20450;-79
2023/02/23 09:28:32;;;;;;;60.57;38.57;;;10.00;99.90;;;;;;5009972;28;20418;-79
2023/02/23 09:31:05;;;;;;;52.73;35.53;;;10.00;99.90;;;;;;5010009;28;20418;-78
2023/02/23 09:33:31;;;;;;;53.63;34.93;;;10.10;99.90;;;;;;5010002;28;21013;-79
2023/02/23 09:35:56;;;;;;;52.70;34.30;;;10.10;99.90;;;;;;5011335;28;20437;-78
2023/02/23 09:38:23;;;;;;;48.63;31.43;;;10.10;99.90;;;;;;5018123;28;20182;-79
2023/02/23 09:40:53;;;;;;;49.90;31.73;;;10.10;99.90;;;;;;5029538;28;20186;-78
2023/02/23 09:43:49;;;;;;;46.23;29.60;;;10.10;99.90;;;;;;5029256;28;20452;-79
2023/02/23 09:46:29;;;;;;;47.73;28.30;;;10.00;99.90;;;;;;5029124;28;20475;-79
2023/02/23 09:48:57;;;;;;;41.80;28.00;;;10.00;99.90;;;;;;5029423;28;20452;-79
2023/02/23 09:51:23;;;;;;;39.90;27.60;;;10.00;99.90;;;;;;5030534;28;20452;-79
2023/02/23 09:54:01;;;;;;;43.50;27.77;;;10.10;99.90;;;;;;5029122;28;20502;-78
2023/02/23 09:56:36;;;;;;;38.23;25.50;;;10.10;99.90;;;;;;5012733;28;20421;-79
2023/02/23 09:59:05;;;;;;;47.70;28.53;;;10.10;99.90;;;;;;5030323;28;20420;-79
2023/02/23 10:01:56;;;;;;;39.07;24.40;;;10.00;99.90;;;;;;5029010;28;20417;-79
2023/02/23 10:04:30;;;;;;;40.23;26.63;;;10.10;99.90;;;;;;5030093;28;20465;-79
2023/02/23 10:07:11;;;;;;;38.03;25.30;;;10.10;99.90;;;;;;5030670;28;21194;-79
2023/02/23 10:09:42;;;;;;;44.33;27.30;;;10.10;99.90;;;;;;5032951;28;20431;-77
2023/02/23 10:12:36;;;;;;;39.10;27.03;;;10.10;99.90;;;;;;5031900;28;20468;-76
2023/02/23 10:15:05;;;;;;;42.37;27.43;;;10.10;99.90;;;;;;5033600;28;20414;-79
2023/02/23 10:17:52;;;;;;;45.00;29.00;;;10.10;99.90;;;;;;5032611;28;20413;-78
2023/02/23 10:20:38;;;;;;;40.77;28.87;;;10.10;99.90;;;;;;5032960;28;20421;-78
2023/02/23 10:23:10;;;;;;;41.97;27.83;;;10.00;99.90;;;;;;5034315;28;20476;-76
2023/02/23 10:25:42;;;;;;;44.57;29.10;;;10.00;99.90;;;;;;5036224;28;20436;-79
2023/02/23 10:28:14;;;;;;;45.87;29.03;;;9.90;99.90;;;;;;5033771;28;20417;-80
2023/02/23 10:30:40;;;;;;;43.47;30.47;;;9.90;99.90;;;;;;5016443;28;20426;-80
2023/02/23 10:33:25;;;;;;;43.10;28.60;;;10.00;99.90;;;;;;5032990;28;20972;-80
2023/02/23 10:35:59;;;;;;;48.90;29.20;;;10.00;99.90;;;;;;5034153;28;21205;-78
2023/02/23 10:38:24;;;;;;;45.27;29.87;;;10.00;99.90;;;;;;5016818;28;20424;-80
2023/02/23 10:40:54;;;;;;;39.27;27.10;;;10.10;99.90;;;;;;5051330;28;20519;-80
2023/02/23 10:43:20;;;;;;;42.77;28.80;;;10.10;99.90;;;;;;5053614;28;20217;-80
2023/02/23 10:45:50;;;;;;;39.47;28.27;;;10.00;99.90;;;;;;5052633;28;20431;-79
2023/02/23 10:48:22;;;;;;;44.30;28.90;;;10.00;99.90;;;;;;5035726;28;20189;-80
2023/02/23 10:50:51;;;;;;;42.17;27.90;;;10.00;99.90;;;;;;5053778;28;20424;-80
2023/02/23 10:53:26;;;;;;;46.30;32.57;;;10.10;99.90;;;;;;5053811;28;20558;-80
2023/02/23 10:56:11;;;;;;;45.83;31.03;;;10.10;99.90;;;;;;5036256;28;20477;-76
2023/02/23 10:58:47;;;;;;;47.33;30.87;;;10.00;99.90;;;;;;5055224;28;20465;-80
2023/02/23 11:01:15;;;;;;;45.43;32.33;;;10.10;99.90;;;;;;5055303;28;20431;-80
2023/02/23 11:03:46;;;;;;;44.37;30.60;;;10.00;99.90;;;;;;5057440;28;20464;-80
2023/02/23 11:06:31;;;;;;;46.07;31.87;;;10.00;99.90;;;;;;5057966;28;20413;-80
2023/02/23 11:08:57;;;;;;;52.07;34.33;;;10.00;99.90;;;;;;5056938;28;20422;-77
2023/02/23 11:11:27;;;;;;;51.00;34.37;;;10.10;99.90;;;;;;5056076;28;20496;-78
2023/02/23 11:13:55;;;;;;;51.07;33.23;;;10.00;99.90;;;;;;5055797;28;20205;-77
2023/02/23 11:16:28;;;;;;;51.40;33.50;;;10.00;99.90;;;;;;5039042;28;20511;-77
2023/02/23 11:19:13;;;;;;;52.90;32.53;;;10.00;99.90;;;;;;5056458;28;20566;-80
2023/02/23 11:21:39;;;;;;;44.90;30.53;;;10.00;99.90;;;;;;5054650;28;20416;-76
2023/02/23 11:24:12;;;;;;;42.33;28.20;;;10.00;99.90;;;;;;5057394;28;20512;-77
2023/02/23 11:26:41;;;;;;;45.70;29.70;;;10.00;99.90;;;;;;5057982;28;20182;-79
2023/02/23 11:29:32;;;;;;;49.90;29.00;;;10.00;99.90;;;;;;5056434;28;21002;-78
2023/02/23 11:31:58;;;;;;;47.60;30.10;;;10.00;99.90;;;;;;5056084;28;20808;-80
2023/02/23 11:34:30;;;;;;;46.20;29.53;;;9.90;99.90;;;;;;5054955;28;20434;-80
2023/02/23 11:37:05;;;;;;;43.43;28.70;;;9.90;99.90;;;;;;5055025;28;20790;-79
2023/02/23 11:39:32;;;;;;;52.33;31.87;;;9.90;99.90;;;;;;5040612;28;20424;-77
2023/02/23 11:42:20;;;;;;;45.93;28.30;;;9.90;99.90;;;;;;5018513;28;20444;-80
2023/02/23 11:45:15;;;;;;;53.77;31.40;;;9.90;99.90;;;;;;5015792;28;20564;-78
2023/02/23 11:47:45;;;;;;;55.33;30.60;;;9.90;99.90;;;;;;5013189;28;20890;-79
2023/02/23 11:50:37;;;;;;;50.13;29.37;;;9.90;99.90;;;;;;5015641;28;20918;-77
2023/02/23 11:53:06;;;;;;;53.27;31.43;;;9.80;99.90;;;;;;5012746;28;20564;-77
2023/02/23 11:55:33;;;;;;;50.27;30.57;;;9.90;99.90;;;;;;5024913;28;20507;-78
2023/02/23 11:58:08;;;;;;;50.97;31.67;;;9.90;99.90;;;;;;5035581;28;20417;-80
2023/02/23 12:00:34;;;;;;;46.10;30.20;;;9.80;99.90;;;;;;5034152;28;20428;-79
2023/02/23 12:03:01;;;;;;;43.97;28.00;;;9.80;99.90;;;;;;5033515;28;20457;-76
2023/02/23 12:05:29;;;;;;;46.80;27.50;;;9.80;99.90;;;;;;5032338;28;20175;-78
2023/02/23 12:08:07;;;;;;;45.80;28.23;;;9.80;99.90;;;;;;5014658;28;20461;-78
2023/02/23 12:10:56;;;;;;;45.30;27.73;;;9.80;99.90;;;;;;5001145;28;20429;-78
2023/02/23 12:13:35;;;;;;;44.37;27.03;;;9.80;99.90;;;;;;5000349;28;20975;-79
2023/02/23 12:16:15;;;;;;;38.90;26.20;;;9.80;99.90;;;;;;5033745;28;20417;-78
2023/02/23 12:18:45;;;;;;;37.67;24.10;;;9.80;99.90;;;;;;5016127;28;20438;-78
2023/02/23 12:21:24;;;;;;;34.23;22.80;;;9.90;99.90;;;;;;5033451;28;20496;-78
2023/02/23 12:23:56;;;;;;;42.90;23.43;;;9.90;99.90;;;;;;5034086;28;20461;-79
2023/02/23 12:26:22;;;;;;;39.00;23.77;;;9.90;99.90;;;;;;5034834;28;20973;-79
2023/02/23 12:29:04;;;;;;;48.07;29.00;;;9.90;99.90;;;;;;5033231;28;20436;-79
2023/02/23 12:31:48;;;;;;;42.37;25.53;;;9.90;99.90;;;;;;5032647;28;20938;-79
2023/02/23 12:34:43;;;;;;;40.03;25.63;;;9.90;99.90;;;;;;5034426;28;20508;-80
2023/02/23 12:37:36;;;;;;;40.37;24.87;;;9.80;99.90;;;;;;5034484;28;20421;-79
2023/02/23 12:40:16;;;;;;;39.03;23.17;;;9.80;99.90;;;;;;5033541;28;20481;-77
2023/02/23 12:42:52;;;;;;;36.10;22.90;;;9.70;99.90;;;;;;5053328;28;20436;-79
2023/02/23 12:45:27;;;;;;;35.00;20.30;;;9.70;99.90;;;;;;5053785;28;20416;-79
2023/02/23 12:48:32;;;;;;;31.47;19.97;;;9.70;99.90;;;;;;5054225;28;20411;-79
2023/02/23 12:51:03;;;;;;;28.30;18.70;;;9.70;99.90;;;;;;5052538;28;20499;-79
2023/02/23 12:53:39;;;;;;;30.43;19.10;;;9.70;99.90;;;;;;5053610;28;20447;-79
2023/02/23 12:56:23;;;;;;;35.37;18.37;;;9.70;99.90;;;;;;5054165;28;20416;-79
2023/02/23 12:58:55;;;;;;;29.97;18.37;;;9.70;99.90;;;;;;5053844;28;20424;-79
2023/02/23 13:01:33;;;;;;;28.73;18.43;;;9.70;99.90;;;;;;5053839;28;20483;-79
2023/02/23 13:04:01;;;;;;;33.10;19.57;;;9.70;99.90;;;;;;5035022;28;20487;-78
2023/02/23 13:06:45;;;;;;;29.63;19.00;;;9.80;99.90;;;;;;5052913;28;20508;-79
2023/02/23 13:09:25;;;;;;;29.43;17.70;;;9.80;99.90;;;;;;5052517;28;20420;-78
2023/02/23 13:12:00;;;;;;;31.60;20.40;;;9.80;99.90;;;;;;5052244;28;20432;-78
2023/02/23 13:14:57;;;;;;;35.43;20.30;;;9.80;99.90;;;;;;5053412;28;20431;-77
2023/02/23 13:17:27;;;;;;;34.40;20.60;;;9.70;99.90;;;;;;5051418;28;20424;-78
2023/02/23 13:19:57;;;;;;;33.70;20.17;;;9.70;99.90;;;;;;5052532;28;20778;-79
2023/02/23 13:22:35;;;;;;;38.67;22.50;;;9.60;99.90;;;;;;5035548;28;20525;-77
2023/02/23 13:25:11;;;;;;;37.27;21.57;;;9.60;99.90;;;;;;5051300;28;20459;-77
2023/02/23 13:27:43;;;;;;;34.07;20.80;;;9.60;99.90;;;;;;5052007;28;20416;-79
2023/02/23 13:30:10;;;;;;;40.67;22.97;;;9.60;99.90;;;;;;5053079;28;20413;-79
2023/02/23 13:32:38;;;;;;;37.10;21.80;;;9.60;99.90;;;;;;5053119;28;20493;-77
2023/02/23 13:35:14;;;;;;;33.20;21.30;;;9.60;99.90;;;;;;5051748;28;20461;-79
2023/02/23 13:38:12;;;;;;;38.50;22.63;;;9.60;99.90;;;;;;5050204;28;20411;-78
2023/02/23 13:40:45;;;;;;;35.17;21.40;;;9.60;99.90;;;;;;5043240;28;20432;-79
2023/02/23 13:43:52;;;;;;;34.13;20.40;;;9.60;99.90;;;;;;5052526;28;20463;-79
2023/02/23 13:46:24;;;;;;;31.83;20.23;;;9.60;99.90;;;;;;5046804;28;20424;-77
2023/02/23 13:49:01;;;;;;;34.97;20.00;;;9.50;99.90;;;;;;5052495;28;20416;-79
2023/02/23 13:51:46;;;;;;;34.53;20.20;;;9.50;99.90;;;;;;5050855;28;20811;-79
2023/02/23 13:54:11;;;;;;;34.53;21.37;;;9.50;99.90;;;;;;5051599;28;20473;-76
2023/02/23 13:56:53;;;;;;;35.07;21.10;;;9.60;99.90;;;;;;5052876;28;20937;-79
2023/02/23 13:59:36;;;;;;;32.30;19.40;;;9.50;99.90;;;;;;5051683;28;20189;-80
2023/02/23 14:02:33;;;;;;;29.80;19.27;;;9.50;99.90;;;;;;5052552;28;20523;-76
2023/02/23 14:05:16;;;;;;;30.30;19.03;;;9.50;99.90;;;;;;5052274;28;20452;-77
2023/02/23 14:07:45;;;;;;;29.77;18.00;;;9.50;99.90;;;;;;5033728;28;20408;-79
2023/02/23 14:10:25;;;;;;;27.70;17.33;;;9.50;99.90;;;;;;5050699;28;21090;-79